Time;durP1;ratioP1;P1;durP2;ratioP2;P2;SDS_P1;SDS_P2;PMS_P1;PMS_P2;Temp;Humidity;BMP_temperature;BMP_pressure;BME280_temperature;BME280_humidity;BME280_pressure;Samples;Min_cycle;Max_cycle;Signal;HPM_P1;HPM_P2
2023/11/12 00:00:21;;;;;;;25.33;12.85;;;13.30;83.80;;;;;;5055203;28;20041;-74
2023/11/12 00:02:47;;;;;;;26.15;12.90;;;13.30;84.00;;;;;;5044898;28;20537;-75
2023/11/12 00:05:12;;;;;;;26.00;13.07;;;13.20;84.10;;;;;;5026776;28;20034;-74
2023/11/12 00:07:38;;;;;;;28.42;12.90;;;13.20;84.30;;;;;;5042471;28;20061;-75
2023/11/12 00:10:04;;;;;;;25.77;12.85;;;13.10;84.10;;;;;;5051947;28;20322;-74
2023/11/12 00:12:31;;;;;;;24.50;11.82;;;13.10;84.10;;;;;;5055114;28;20080;-75
2023/11/12 00:14:57;;;;;;;30.27;12.00;;;13.10;84.90;;;;;;5054633;28;20060;-75
2023/11/12 00:17:24;;;;;;;25.58;11.75;;;13.10;84.50;;;;;;5055156;28;20033;-76
2023/11/12 00:19:50;;;;;;;25.08;10.77;;;13.00;84.40;;;;;;5053301;28;20465;-76
2023/11/12 00:22:16;;;;;;;25.83;10.82;;;13.00;84.60;;;;;;5054098;28;20048;-75
2023/11/12 15:24:52;;;;;;;14.35;4.47;;;18.20;89.80;;;;;;5021541;22;20137;-77
2023/11/12 15:27:18;;;;;;;12.50;3.80;;;18.10;89.40;;;;;;5012789;28;20120;-77
2023/11/12 15:29:44;;;;;;;16.65;5.07;;;18.10;89.80;;;;;;5013170;28;20117;-78
2023/11/12 15:32:10;;;;;;;15.30;4.65;;;18.00;90.10;;;;;;5011287;28;20093;-78
2023/11/12 15:34:37;;;;;;;12.05;3.97;;;17.90;90.20;;;;;;5032429;28;20116;-77
2023/11/12 15:37:04;;;;;;;13.27;3.90;;;17.90;90.40;;;;;;5032174;28;20524;-78
2023/11/12 15:39:29;;;;;;;12.23;3.72;;;17.80;90.50;;;;;;5032285;28;20037;-79
2023/11/12 15:41:55;;;;;;;15.50;4.15;;;17.70;90.60;;;;;;5008668;28;20513;-77
2023/11/12 15:44:21;;;;;;;13.00;3.90;;;17.70;90.80;;;;;;5012558;28;20034;-78
2023/11/12 15:46:51;;;;;;;15.35;4.70;;;17.60;90.80;;;;;;5013029;28;20034;-76
2023/11/12 15:49:16;;;;;;;15.25;4.22;;;17.60;91.30;;;;;;5012809;28;20088;-77
2023/11/12 15:51:42;;;;;;;12.77;4.05;;;17.50;91.40;;;;;;5007022;28;20510;-78
2023/11/12 15:54:08;;;;;;;19.63;4.85;;;17.40;91.40;;;;;;5012916;28;20493;-79
2023/11/12 15:56:35;;;;;;;14.77;4.63;;;17.40;91.60;;;;;;5016490;28;20137;-78
2023/11/12 15:59:01;;;;;;;12.98;4.78;;;17.30;91.60;;;;;;5016405;28;20021;-78
2023/11/12 16:01:28;;;;;;;13.77;4.25;;;17.30;91.80;;;;;;5014716;28;20151;-78
2023/11/12 16:03:54;;;;;;;16.65;6.13;;;17.20;91.80;;;;;;5035155;28;20523;-77
2023/11/12 16:06:20;;;;;;;15.98;5.25;;;17.20;92.00;;;;;;5035039;28;20033;-77
2023/11/12 16:08:46;;;;;;;17.48;5.13;;;17.20;92.00;;;;;;5035427;28;20037;-78
2023/11/12 16:11:12;;;;;;;18.42;5.40;;;17.10;92.30;;;;;;5020655;28;20077;-79
2023/11/12 16:13:38;;;;;;;15.43;6.28;;;17.10;92.30;;;;;;5034338;28;20497;-78
2023/11/12 16:16:05;;;;;;;18.13;6.97;;;17.10;92.30;;;;;;5032041;28;20029;-78
2023/11/12 16:18:31;;;;;;;19.92;6.85;;;17.00;92.40;;;;;;5024700;28;20096;-79
2023/11/12 16:20:58;;;;;;;16.02;6.28;;;17.00;92.50;;;;;;5012001;28;20124;-83
2023/11/12 16:23:24;;;;;;;16.20;6.13;;;17.00;92.50;;;;;;5011207;28;20077;-75
2023/11/12 16:25:49;;;;;;;23.92;6.95;;;17.00;92.50;;;;;;5040936;28;20135;-80
2023/11/12 16:28:15;;;;;;;14.57;5.38;;;16.90;92.50;;;;;;5054081;28;20037;-81
2023/11/12 16:30:42;;;;;;;15.55;5.95;;;16.90;92.60;;;;;;5048506;28;20030;-81
2023/11/12 16:33:09;;;;;;;20.92;6.53;;;16.90;92.70;;;;;;5046488;28;20055;-77
2023/11/12 16:35:35;;;;;;;13.02;6.18;;;16.90;92.80;;;;;;5053174;28;20048;-77
2023/11/12 16:38:04;;;;;;;12.13;5.60;;;16.80;92.80;;;;;;5033904;28;20122;-76
2023/11/12 16:40:33;;;;;;;16.17;6.22;;;16.80;92.70;;;;;;5037445;28;20489;-77
2023/11/12 16:43:00;;;;;;;19.35;6.63;;;16.80;92.90;;;;;;5050721;28;20135;-77
2023/11/12 16:45:27;;;;;;;13.55;6.22;;;16.80;93.00;;;;;;5055193;28;20028;-76
2023/11/12 16:47:55;;;;;;;33.38;22.05;;;16.70;92.90;;;;;;5055299;28;20067;-77
2023/11/12 16:50:20;;;;;;;16.38;7.05;;;16.70;93.00;;;;;;5051312;28;20045;-77
2023/11/12 16:52:46;;;;;;;19.48;9.38;;;16.70;93.10;;;;;;5041089;28;20043;-82
2023/11/12 16:55:12;;;;;;;22.52;8.10;;;16.70;93.20;;;;;;5044972;28;20033;-84
2023/11/12 16:57:39;;;;;;;18.08;7.07;;;16.70;93.20;;;;;;5045237;28;20045;-85
2023/11/12 17:00:05;;;;;;;23.13;8.80;;;16.70;93.30;;;;;;5062728;28;20033;-80
2023/11/12 17:02:33;;;;;;;23.33;8.60;;;16.60;93.20;;;;;;5046082;28;20056;-81
2023/11/12 17:04:58;;;;;;;19.50;8.00;;;16.60;93.30;;;;;;5051424;28;20028;-83
2023/11/12 17:07:24;;;;;;;19.98;7.85;;;16.60;93.30;;;;;;5055114;28;20434;-79
2023/11/12 17:09:50;;;;;;;23.23;7.65;;;16.60;93.30;;;;;;5055849;28;20037;-84
2023/11/12 17:12:16;;;;;;;21.90;8.38;;;16.50;93.30;;;;;;5040350;28;20481;-85
2023/11/12 17:14:42;;;;;;;16.65;7.93;;;16.50;93.40;;;;;;5037339;28;20022;-84
2023/11/12 17:17:08;;;;;;;21.25;8.27;;;16.40;93.40;;;;;;5040514;28;20088;-84
2023/11/12 17:19:35;;;;;;;21.70;9.98;;;16.40;93.40;;;;;;5036382;28;20030;-85
2023/11/12 17:22:01;;;;;;;18.77;9.73;;;16.40;93.40;;;;;;5042834;28;20512;-83
2023/11/12 17:24:26;;;;;;;20.40;8.85;;;16.40;93.50;;;;;;5055166;28;20040;-86
2023/11/12 17:26:53;;;;;;;19.90;9.30;;;16.30;93.40;;;;;;5028139;28;20132;-82
2023/11/12 17:29:20;;;;;;;22.65;10.00;;;16.30;93.40;;;;;;5035542;28;20064;-84
2023/11/12 17:31:50;;;;;;;24.60;10.95;;;16.30;93.40;;;;;;5034795;28;20128;-83
2023/11/12 17:34:16;;;;;;;20.90;9.68;;;16.30;93.40;;;;;;5040283;28;20030;-81
2023/11/12 17:36:42;;;;;;;19.17;9.57;;;16.30;93.50;;;;;;5046774;28;20038;-81
2023/11/12 17:39:16;;;;;;;22.30;12.57;;;16.20;93.40;;;;;;5017112;28;20429;-83
2023/11/12 17:41:46;;;;;;;24.20;10.95;;;16.20;93.40;;;;;;5034403;28;20037;-83
2023/11/12 17:44:12;;;;;;;22.02;10.50;;;16.10;93.50;;;;;;5053710;28;20029;-86
2023/11/12 17:46:38;;;;;;;27.35;16.77;;;16.10;93.60;;;;;;5054366;28;20032;-81
2023/11/12 17:49:06;;;;;;;23.83;12.23;;;16.10;93.70;;;;;;5038033;28;20558;-83
2023/11/12 17:51:32;;;;;;;21.65;10.95;;;16.10;93.70;;;;;;5043753;28;20060;-87
2023/11/12 17:53:58;;;;;;;31.58;12.88;;;16.00;93.70;;;;;;5054706;28;20041;-89
2023/11/12 17:56:23;;;;;;;27.70;17.00;;;16.00;93.80;;;;;;5047797;28;20037;-83
2023/11/12 17:58:49;;;;;;;36.95;22.95;;;15.90;93.80;;;;;;5051610;28;20068;-84
2023/11/12 18:01:18;;;;;;;32.70;15.57;;;15.90;93.90;;;;;;5039171;28;20029;-81
2023/11/12 18:03:44;;;;;;;27.70;11.40;;;15.90;93.90;;;;;;5034768;28;20041;-83
2023/11/12 18:06:10;;;;;;;39.35;22.98;;;15.90;94.00;;;;;;5054959;28;20033;-80
2023/11/12 18:08:38;;;;;;;33.53;14.82;;;15.90;94.00;;;;;;5053507;28;20116;-80
2023/11/12 18:11:04;;;;;;;39.60;18.20;;;15.90;94.10;;;;;;5039731;28;20037;-79
2023/11/12 18:13:31;;;;;;;32.63;15.32;;;15.90;94.10;;;;;;5052098;28;20041;-80
2023/11/12 18:15:57;;;;;;;30.52;13.30;;;15.90;94.10;;;;;;5053142;28;20497;-73
2023/11/12 18:18:24;;;;;;;29.65;12.77;;;15.90;94.10;;;;;;5046804;28;20033;-74
2023/11/12 18:20:49;;;;;;;30.45;13.57;;;15.90;94.20;;;;;;5042764;28;20949;-75
2023/11/12 18:23:16;;;;;;;29.60;12.13;;;15.90;94.20;;;;;;5052909;28;20048;-75
2023/11/12 18:25:41;;;;;;;24.30;11.57;;;15.90;94.30;;;;;;5039668;28;20041;-76
2023/11/12 18:28:10;;;;;;;24.80;12.13;;;15.90;94.30;;;;;;5023143;28;20042;-76
2023/11/12 18:30:40;;;;;;;28.73;12.57;;;15.80;94.30;;;;;;5019781;28;20550;-74
2023/11/12 18:33:07;;;;;;;26.67;11.90;;;15.80;94.30;;;;;;5028412;28;20465;-75
2023/11/12 18:35:34;;;;;;;26.55;11.50;;;15.80;94.30;;;;;;5029088;28;20096;-77
2023/11/12 18:38:01;;;;;;;30.20;12.07;;;15.80;94.30;;;;;;5033255;28;20477;-73
2023/11/12 18:40:26;;;;;;;22.67;10.93;;;15.80;94.30;;;;;;5032490;28;20041;-77
2023/11/12 18:42:55;;;;;;;22.92;11.73;;;15.80;94.30;;;;;;5026881;28;20111;-76
2023/11/12 18:45:21;;;;;;;22.42;10.82;;;15.80;94.40;;;;;;5028257;28;20030;-76
2023/11/12 18:47:47;;;;;;;21.00;10.50;;;15.80;94.30;;;;;;5023554;28;20056;-76
2023/11/12 18:50:13;;;;;;;21.02;10.32;;;15.80;94.40;;;;;;5020483;28;20068;-75
2023/11/12 18:52:41;;;;;;;28.38;11.00;;;15.90;94.40;;;;;;5034974;28;20063;-75
2023/11/12 18:55:07;;;;;;;25.42;9.63;;;15.90;94.30;;;;;;5021997;28;20490;-75
2023/11/12 18:57:33;;;;;;;21.70;10.30;;;15.90;94.30;;;;;;5019881;28;20036;-88
2023/11/12 19:00:06;;;;;;;15.55;8.30;;;15.90;94.20;;;;;;5049219;28;20689;-88
2023/11/12 19:02:34;;;;;;;15.50;7.60;;;15.90;94.10;;;;;;5046880;28;20045;-87
2023/11/12 19:05:00;;;;;;;16.60;6.30;;;15.90;94.00;;;;;;5053535;28;20358;-87
2023/11/12 19:07:26;;;;;;;18.88;6.55;;;15.80;93.90;;;;;;5053415;28;20044;-88
2023/11/12 19:09:52;;;;;;;11.77;5.95;;;15.80;93.80;;;;;;5053074;28;20078;-87
2023/11/12 19:12:18;;;;;;;16.83;6.50;;;15.70;93.80;;;;;;5040393;28;20124;-87
2023/11/12 19:14:44;;;;;;;13.10;5.78;;;15.60;93.70;;;;;;5034446;28;20051;-88
2023/11/12 19:17:09;;;;;;;13.88;5.47;;;15.50;93.90;;;;;;5034009;28;20033;-88
2023/11/12 19:19:36;;;;;;;10.57;5.70;;;15.40;93.70;;;;;;5028640;28;20508;-86
2023/11/12 19:22:05;;;;;;;12.88;5.47;;;15.40;93.70;;;;;;5024234;28;20025;-87
2023/11/12 19:24:35;;;;;;;10.90;5.40;;;15.30;93.60;;;;;;5029506;28;20057;-86
2023/11/12 19:27:04;;;;;;;10.35;5.50;;;15.30;93.60;;;;;;5041031;28;20025;-79
2023/11/12 19:29:30;;;;;;;12.85;5.35;;;15.30;93.50;;;;;;5046974;28;20281;-79
2023/11/12 19:31:56;;;;;;;8.35;5.28;;;15.30;93.40;;;;;;5041663;28;20033;-84
2023/11/12 19:34:24;;;;;;;10.55;5.20;;;15.30;93.50;;;;;;5051709;28;20397;-83
2023/11/12 19:36:52;;;;;;;9.85;4.85;;;15.20;93.40;;;;;;5036332;28;20120;-80
2023/11/12 19:39:18;;;;;;;11.73;4.97;;;15.20;93.30;;;;;;5035834;28;20029;-84
2023/11/12 19:41:44;;;;;;;14.57;5.78;;;15.20;93.20;;;;;;5031512;28;20057;-86
2023/11/12 19:44:09;;;;;;;12.65;6.13;;;15.20;93.10;;;;;;5048009;28;20037;-84
2023/11/12 19:46:47;;;;;;;10.57;5.95;;;15.20;93.10;;;;;;5032970;28;20029;-85
2023/11/12 19:49:13;;;;;;;16.70;7.43;;;15.20;93.00;;;;;;5034024;28;20393;-85
2023/11/12 19:51:40;;;;;;;11.43;6.57;;;15.20;93.00;;;;;;5037204;28;20021;-84
2023/11/12 19:54:06;;;;;;;12.07;6.38;;;15.20;93.10;;;;;;5033514;28;20181;-81
2023/11/12 19:56:32;;;;;;;12.77;6.88;;;15.30;93.10;;;;;;5020378;28;20371;-83
2023/11/12 19:58:59;;;;;;;11.90;6.55;;;15.20;93.00;;;;;;5018410;28;20041;-80
2023/11/12 20:01:30;;;;;;;11.30;6.30;;;15.20;93.10;;;;;;5025064;28;20033;-81
2023/11/12 20:03:56;;;;;;;14.80;7.00;;;15.20;93.10;;;;;;5055357;28;20045;-82
2023/11/12 20:06:23;;;;;;;14.90;7.25;;;15.10;93.00;;;;;;5038915;28;20112;-83
2023/11/12 20:08:49;;;;;;;16.38;7.05;;;15.20;93.10;;;;;;5029801;28;20040;-82
2023/11/12 20:11:15;;;;;;;17.63;7.22;;;15.10;93.00;;;;;;5017169;28;20520;-82
2023/11/12 20:13:40;;;;;;;12.90;7.22;;;15.10;93.00;;;;;;5016668;28;20042;-82
2023/11/12 20:16:09;;;;;;;12.15;7.65;;;15.10;93.00;;;;;;5017375;28;20038;-80
2023/11/12 20:18:35;;;;;;;12.65;7.95;;;15.10;93.00;;;;;;5014679;28;20504;-82
2023/11/12 20:21:09;;;;;;;16.08;7.88;;;15.10;93.00;;;;;;5013881;28;20046;-82
2023/11/12 20:23:35;;;;;;;14.88;7.38;;;15.10;93.00;;;;;;5019138;28;20486;-81
2023/11/12 20:26:01;;;;;;;14.63;7.72;;;15.00;93.00;;;;;;5055870;28;20108;-82
2023/11/12 20:28:27;;;;;;;13.35;7.65;;;15.00;93.00;;;;;;5055241;28;20430;-84
2023/11/12 20:30:53;;;;;;;14.60;8.07;;;15.00;93.10;;;;;;5042189;28;20153;-82
2023/11/12 20:33:20;;;;;;;12.05;7.60;;;14.90;93.00;;;;;;5034685;28;20440;-82
2023/11/12 20:35:47;;;;;;;15.20;6.80;;;14.90;93.10;;;;;;5041445;28;20047;-83
2023/11/12 20:38:13;;;;;;;13.48;7.32;;;14.80;93.10;;;;;;5054969;28;20025;-84
2023/11/12 20:40:39;;;;;;;15.27;8.00;;;14.80;93.10;;;;;;5049967;28;20696;-82
2023/11/12 20:43:05;;;;;;;17.05;7.55;;;14.80;93.10;;;;;;5035143;28;20038;-79
2023/11/12 20:45:30;;;;;;;16.75;8.68;;;14.80;93.00;;;;;;5034841;28;20033;-85
2023/11/12 20:47:58;;;;;;;16.30;8.77;;;14.80;93.10;;;;;;5043314;28;20159;-84
2023/11/12 20:50:24;;;;;;;15.18;8.73;;;14.80;93.10;;;;;;5052481;28;20032;-69
2023/11/12 20:52:51;;;;;;;21.83;13.95;;;14.80;93.10;;;;;;5048471;28;20036;-80
2023/11/12 20:55:17;;;;;;;18.10;8.95;;;14.70;93.10;;;;;;5074830;28;20084;-81
2023/11/12 20:57:44;;;;;;;14.48;8.55;;;14.70;93.20;;;;;;5075451;28;20404;-81
2023/11/12 21:00:12;;;;;;;14.27;7.63;;;14.60;93.20;;;;;;5070034;28;20035;-85
2023/11/12 21:02:37;;;;;;;13.15;8.55;;;14.50;93.10;;;;;;5033267;28;20455;-79
2023/11/12 21:05:04;;;;;;;16.23;9.18;;;14.50;93.50;;;;;;5044097;28;20042;-79
2023/11/12 21:07:30;;;;;;;14.70;8.85;;;14.50;93.30;;;;;;5055591;28;20052;-83
2023/11/12 21:09:56;;;;;;;22.92;9.90;;;14.50;93.30;;;;;;5055481;28;20037;-76
2023/11/12 21:12:22;;;;;;;17.17;9.65;;;14.50;93.30;;;;;;5026406;28;20059;-77
2023/11/12 21:14:48;;;;;;;15.93;9.90;;;14.50;93.30;;;;;;5034547;28;20087;-76
2023/11/12 21:17:17;;;;;;;15.90;9.85;;;14.40;93.30;;;;;;5034262;28;20030;-78
2023/11/12 21:19:43;;;;;;;23.60;11.25;;;14.40;93.40;;;;;;5034002;28;20378;-76
2023/11/12 21:22:09;;;;;;;17.35;10.20;;;14.40;93.50;;;;;;5035524;28;20029;-76
2023/11/12 21:24:38;;;;;;;16.35;10.27;;;14.40;93.40;;;;;;5051358;28;20068;-75
2023/11/12 21:27:04;;;;;;;17.10;10.25;;;14.40;93.40;;;;;;5053293;28;20040;-74
2023/11/12 21:29:30;;;;;;;21.52;10.75;;;14.40;93.40;;;;;;5053284;28;20033;-74
2023/11/12 21:31:59;;;;;;;17.08;11.50;;;14.40;93.40;;;;;;5050842;28;20369;-74
2023/11/12 21:34:26;;;;;;;16.05;11.15;;;14.40;93.40;;;;;;5064771;28;20029;-74
2023/11/12 21:36:51;;;;;;;19.70;11.50;;;14.40;93.40;;;;;;5053495;28;20120;-74
2023/11/12 21:39:18;;;;;;;16.90;11.02;;;14.30;93.40;;;;;;5053587;28;20613;-76
2023/11/12 21:41:45;;;;;;;17.52;10.77;;;14.30;93.60;;;;;;5057451;28;20037;-76
2023/11/12 21:44:11;;;;;;;18.70;11.27;;;14.30;93.50;;;;;;5072588;28;20090;-75
2023/11/12 21:46:37;;;;;;;18.90;11.68;;;14.20;93.50;;;;;;5073744;28;20044;-74
2023/11/12 21:49:02;;;;;;;18.83;11.23;;;14.20;93.50;;;;;;5073324;28;20029;-75
2023/11/12 21:51:30;;;;;;;16.63;9.63;;;14.10;93.50;;;;;;5060774;28;20174;-74
2023/11/12 21:53:56;;;;;;;18.38;10.25;;;14.10;93.60;;;;;;5071842;28;20430;-74
2023/11/12 21:56:21;;;;;;;16.60;10.32;;;14.10;93.60;;;;;;5073260;28;20111;-74
2023/11/12 21:58:48;;;;;;;14.70;9.95;;;14.10;93.60;;;;;;5073403;28;20504;-75
2023/11/12 22:01:14;;;;;;;19.05;10.30;;;14.00;93.50;;;;;;5052631;28;20025;-75
2023/11/12 22:03:40;;;;;;;13.65;9.60;;;13.90;93.60;;;;;;5032512;28;20041;-74
2023/11/12 22:06:09;;;;;;;18.35;10.02;;;13.90;93.60;;;;;;5042094;28;20033;-73
2023/11/12 22:08:35;;;;;;;20.20;10.18;;;13.90;93.70;;;;;;5035170;28;20043;-75
2023/11/12 22:11:01;;;;;;;16.73;9.52;;;13.90;93.90;;;;;;5046357;28;20089;-75
2023/11/12 22:13:30;;;;;;;16.58;9.15;;;13.80;93.80;;;;;;5032427;28;20029;-74
2023/11/12 22:15:56;;;;;;;12.77;9.10;;;13.80;93.90;;;;;;5036642;28;20029;-75
2023/11/12 22:18:25;;;;;;;20.55;10.23;;;13.90;93.90;;;;;;5048152;28;20116;-74
2023/11/12 22:20:52;;;;;;;16.25;9.40;;;13.90;94.00;;;;;;5040201;28;20044;-75
2023/11/12 22:23:18;;;;;;;15.80;9.15;;;13.90;94.00;;;;;;5041795;28;20390;-74
2023/11/12 22:25:44;;;;;;;13.93;9.48;;;13.90;93.90;;;;;;5031068;28;20052;-75
2023/11/12 22:28:13;;;;;;;13.60;9.30;;;13.90;93.90;;;;;;5032354;28;20401;-74
2023/11/12 22:30:38;;;;;;;16.20;9.57;;;13.90;94.00;;;;;;5025337;28;20037;-74
2023/11/12 22:33:05;;;;;;;15.77;9.95;;;13.90;94.00;;;;;;5022016;28;20402;-74
2023/11/12 22:35:31;;;;;;;17.30;9.63;;;14.00;94.10;;;;;;5022916;28;20048;-74
2023/11/12 22:37:57;;;;;;;14.25;9.35;;;14.00;94.10;;;;;;5032318;28;20485;-75
2023/11/12 22:40:23;;;;;;;14.98;9.63;;;13.90;94.10;;;;;;5029085;28;20046;-74
2023/11/12 22:42:51;;;;;;;17.85;9.32;;;13.90;94.10;;;;;;5011241;28;20133;-73
2023/11/12 22:45:17;;;;;;;16.50;9.73;;;13.90;94.10;;;;;;5015109;28;20049;-74
2023/11/12 22:47:44;;;;;;;13.35;8.90;;;13.90;94.20;;;;;;5030693;28;20108;-74
2023/11/12 22:50:12;;;;;;;14.40;8.80;;;13.80;94.10;;;;;;5012039;28;20084;-71
2023/11/12 22:52:38;;;;;;;17.65;9.43;;;13.80;94.20;;;;;;5037063;28;20051;-73
2023/11/12 22:55:06;;;;;;;14.60;9.45;;;13.80;94.20;;;;;;5038092;28;20556;-76
2023/11/12 22:57:33;;;;;;;15.88;9.45;;;13.80;94.20;;;;;;5032245;28;20409;-75
2023/11/12 23:00:14;;;;;;;15.57;9.82;;;13.80;94.20;;;;;;5046271;28;20037;-77
2023/11/12 23:02:43;;;;;;;18.70;9.25;;;13.80;94.20;;;;;;5026676;28;20042;-80
2023/11/12 23:05:12;;;;;;;17.95;9.48;;;13.80;94.00;;;;;;5021654;28;20022;-79
2023/11/12 23:07:39;;;;;;;17.27;9.85;;;13.80;94.00;;;;;;5032582;28;20560;-80
2023/11/12 23:10:06;;;;;;;15.65;10.18;;;13.80;94.10;;;;;;5032522;28;20026;-82
2023/11/12 23:12:34;;;;;;;20.42;10.63;;;13.80;94.10;;;;;;5032474;28;20033;-83
2023/11/12 23:15:00;;;;;;;15.90;10.18;;;13.70;94.00;;;;;;5014588;28;20080;-81
2023/11/12 23:17:25;;;;;;;15.40;10.15;;;13.70;94.10;;;;;;5032282;28;20088;-81
2023/11/12 23:19:52;;;;;;;17.33;9.52;;;13.70;94.10;;;;;;5040577;28;20038;-80
2023/11/12 23:22:17;;;;;;;17.00;10.32;;;13.70;94.20;;;;;;5036412;28;20049;-81
2023/11/12 23:24:43;;;;;;;18.17;10.00;;;13.60;94.20;;;;;;5046911;28;20051;-80
2023/11/12 23:27:10;;;;;;;16.48;10.32;;;13.60;94.20;;;;;;5053192;28;20040;-82
2023/11/12 23:29:38;;;;;;;16.95;10.02;;;13.50;94.20;;;;;;5052877;28;20102;-81
2023/11/12 23:32:05;;;;;;;17.65;10.63;;;13.50;94.30;;;;;;5036164;28;20083;-81
2023/11/12 23:34:31;;;;;;;20.23;10.50;;;13.50;94.20;;;;;;5031549;28;20033;-79
2023/11/12 23:36:58;;;;;;;18.35;10.20;;;13.50;94.30;;;;;;5031933;28;20097;-82
2023/11/12 23:39:24;;;;;;;17.42;9.68;;;13.40;94.20;;;;;;5031919;28;20045;-80
2023/11/12 23:41:50;;;;;;;20.25;9.60;;;13.40;94.30;;;;;;5031806;28;20485;-81
2023/11/12 23:44:15;;;;;;;15.60;9.35;;;13.40;94.30;;;;;;5032560;28;20112;-80
2023/11/12 23:46:41;;;;;;;19.58;9.32;;;13.30;94.30;;;;;;5035669;28;20033;-81
2023/11/12 23:49:07;;;;;;;16.95;8.55;;;13.30;94.30;;;;;;5052193;28;20095;-80
2023/11/12 23:51:33;;;;;;;15.88;9.65;;;13.30;94.40;;;;;;5051814;28;20448;-81
2023/11/12 23:54:00;;;;;;;16.17;9.38;;;13.30;94.40;;;;;;5052475;28;20035;-81
2023/11/12 23:56:27;;;;;;;13.98;8.60;;;13.40;94.50;;;;;;5053033;28;20037;-81
2023/11/12 23:58:54;;;;;;;16.52;9.27;;;13.30;94.50;;;;;;5052582;28;20029;-80
